Flight Track Log - Related Links

Times and Time Zones

All times are in EDT time to prevent confusion due to time zone crossing. See the N830QS flight status page for this flight to view local times or setup timezone preferences in your user account.

Time Position Orientation Groundspeed Altitude Reporting Facility
EDT Latitude Longitude Course Direction KTS MPH feet Rate Location/Type
Mon 12:19:58 PM 37.9597 -122.0678 77° East 173 199 1,500  Level Oakland Center
Mon 12:21:00 PM 37.9678 -122.0236 77° East 182 209 3,800 2,274 Climbing Oakland Center
Mon 12:22:02 PM 38.0247 -122.0361 350° North 209 241 6,200 2,419 Climbing Oakland Center
Mon 12:23:04 PM 38.0469 -121.9669 68° East 223 257 8,800 1,951 Climbing Oakland Center
Mon 12:24:05 PM 38.0506 -121.8714 87° East 267 307 10,200 1,366 Climbing Oakland Center
Mon 12:25:07 PM 38.0531 -121.7619 88° East 305 351 11,600 1,113 Climbing Oakland Center
Mon 12:26:09 PM 38.0375 -121.6289 98° East 324 373 12,500 871 Climbing Oakland Center
Mon 12:27:11 PM 37.9564 -121.5808 155° Southeast 339 390 13,400 1,317 Climbing Oakland Center
Mon 12:28:12 PM 37.8575 -121.5806 180° South 352 405 15,200 1,902 Climbing Oakland Center
Mon 12:29:14 PM 37.7628 -121.5797 180° South 342 394 17,300 1,839 Climbing Oakland Center
Mon 12:30:16 PM 37.6678 -121.5772 179° South 341 392 19,000 1,694 Climbing Oakland Center
Mon 12:31:18 PM 37.5758 -121.5428 163° South 352 405 20,800 1,756 Climbing Oakland Center
Mon 12:32:19 PM 37.4956 -121.4700 144° Southeast 355 409 22,600 1,756 Climbing Oakland Center
Mon 12:33:21 PM 37.4153 -121.3967 144° Southeast 356 410 24,400 1,790 Climbing Oakland Center
Mon 12:34:23 PM 37.3239 -121.3150 145° Southeast 358 412 26,300 1,645 Climbing Oakland Center
Mon 12:35:25 PM 37.2411 -121.2419 145° Southeast 361 415 27,800 1,415 Climbing Oakland Center
Mon 12:36:26 PM 37.1572 -121.1669 145° Southeast 368 423 29,200 1,902 Climbing Oakland Center
Mon 12:37:28 PM 37.0761 -121.0950 145° Southeast 361 415 31,700 1,839 Climbing Oakland Center
Mon 12:38:30 PM 36.9847 -121.0139 145° Southeast 340 391 33,000 629 Climbing Oakland Center
Mon 12:39:32 PM 36.9025 -120.9397 144° Southeast 357 411 33,000  Level Oakland Center
Mon 12:40:33 PM 36.8147 -120.8675 147° Southeast 356 410 33,000  Level Oakland Center
Mon 12:41:35 PM 36.7142 -120.8481 171° South 357 411 33,000  Level Oakland Center
Mon 12:42:37 PM 36.6175 -120.8189 166° South 356 410 33,000  Level Oakland Center
Mon 12:43:38 PM 36.5217 -120.7919 167° South 353 406 33,000  Level Oakland Center
Mon 12:44:40 PM 36.4333 -120.7467 158° South 347 399 33,000  Level Oakland Center
Mon 12:45:42 PM 36.3581 -120.6694 140° Southeast 348 400 33,000  Level Oakland Center
Mon 12:46:43 PM 36.2819 -120.5953 142° Southeast 348 400 33,000  Level Oakland Center
Mon 12:47:45 PM 36.2044 -120.5231 143° Southeast 348 400 33,000  Level Oakland Center
Mon 12:48:46 PM 36.1281 -120.4497 142° Southeast 347 399 33,000  Level Oakland Center
Mon 12:49:48 PM 36.0347 -120.3628 143° Southeast 349 402 33,000  Level Oakland Center
Mon 12:50:50 PM 35.9458 -120.3144 156° South 349 402 33,000  Level Oakland Center
Mon 12:51:51 PM 35.8553 -120.2681 157° South 350 403 33,000  Level Oakland Center
Mon 12:52:53 PM 35.7658 -120.2189 156° South 351 404 33,000  Level Oakland Center
Mon 12:53:54 PM 35.6767 -120.1722 157° South 347 399 33,000  Level Oakland Center
Mon 12:54:52 PM 35.5875 -120.1247 157° South 347 399 33,000  Level Los Angeles Center
Mon 12:55:55 PM 35.4978 -120.0761 156° South 347 399 33,000  Level Los Angeles Center
Mon 12:56:57 PM 35.4078 -120.0292 157° South 347 399 33,000  Level Los Angeles Center
Mon 12:57:59 PM 35.3189 -119.9817 156° South 347 399 33,000  Level Los Angeles Center
Mon 12:59:01 PM 35.2283 -119.9350 157° South 349 402 33,000  Level Los Angeles Center
Mon 01:00:03 PM 35.1417 -119.8406 138° Southeast 351 404 33,000  Level Los Angeles Center
Mon 01:01:05 PM 35.0717 -119.7558 135° Southeast 353 406 33,000  Level Los Angeles Center
Mon 01:02:07 PM 35.0011 -119.6731 136° Southeast 352 405 33,000  Level Los Angeles Center
Mon 01:03:10 PM 34.9306 -119.5892 136° Southeast 354 407 33,000  Level Los Angeles Center
Mon 01:04:12 PM 34.8592 -119.5067 137° Southeast 354 407 33,000  Level Los Angeles Center
Mon 01:05:14 PM 34.7881 -119.4236 136° Southeast 355 409 33,000  Level Los Angeles Center
Mon 01:06:16 PM 34.7028 -119.3222 136° Southeast 356 410 33,000  Level Los Angeles Center
Mon 01:07:18 PM 34.6322 -119.2389 136° Southeast 355 409 33,000  Level Los Angeles Center
Mon 01:08:20 PM 34.5567 -119.1517 136° Southeast 360 414 33,000  Level Los Angeles Center
Mon 01:09:22 PM 34.4839 -119.0675 136° Southeast 362 417 33,000  Level Los Angeles Center
Mon 01:10:25 PM 34.4103 -118.9828 136° Southeast 364 419 33,000  Level Los Angeles Center
Mon 01:11:27 PM 34.3369 -118.8989 137° Southeast 363 418 33,000  Level Los Angeles Center
Mon 01:12:29 PM 34.2633 -118.8139 136° Southeast 366 421 33,000  Level Los Angeles Center
Mon 01:13:31 PM 34.1758 -118.7131 136° Southeast 364 419 33,000  Level Los Angeles Center
Mon 01:14:33 PM 34.1022 -118.6278 136° Southeast 365 420 33,000  Level Los Angeles Center
Mon 01:15:35 PM 34.0281 -118.5419 136° Southeast 368 423 33,000  Level Los Angeles Center
Mon 01:16:37 PM 33.9539 -118.4567 136° Southeast 368 423 33,000  Level Los Angeles Center
Mon 01:17:39 PM 33.8822 -118.3647 133° Southeast 375 432 33,000 -240 Level Los Angeles Center
Mon 01:18:42 PM 33.8064 -118.2753 136° Southeast 377 434 32,500 -768 Descending Los Angeles Center
Mon 01:19:44 PM 33.7319 -118.1719 131° Southeast 394 453 31,400 -1,016 Descending Los Angeles Center
Mon 01:20:46 PM 33.6583 -118.0806 134° Southeast 385 443 30,400 -1,065 Descending Los Angeles Center
Mon 01:21:48 PM 33.5711 -117.9708 134° Southeast 378 435 29,200 -1,742 Descending Los Angeles Center
Mon 01:22:50 PM 33.4997 -117.8797 133° Southeast 374 430 26,800 -2,424 Descending Los Angeles Center
Mon 01:23:27 PM 33.4500 -117.8167 133° Southeast 365 420 25,200 -2,374 Descending Southern California TRACON
Mon 01:24:21 PM 33.3833 -117.7333 134° Southeast 370 426 23,200 -2,114 Descending Southern California TRACON
Mon 01:24:55 PM 33.3558 -117.7014 136° Southeast 371 427 22,100 -2,250 Descending Los Angeles Center
Mon 01:25:57 PM 33.2875 -117.6142 133° Southeast 361 415 19,600 -2,739 Descending Los Angeles Center
Mon 01:26:27 PM 33.2500 -117.5667 133° Southeast 359 413 17,900 -2,733 Descending Southern California TRACON
Mon 01:27:27 PM 33.1667 -117.5000 146° Southeast 349 402 15,500 -2,170 Descending Southern California TRACON
Mon 01:28:01 PM 33.1164 -117.4733 156° South 334 384 14,500 -1,938 Descending Los Angeles Center
Mon 01:29:03 PM 33.0403 -117.4172 148° Southeast 325 374 12,400 -1,887 Descending Los Angeles Center
Mon 01:30:05 PM 32.9758 -117.3561 141° Southeast 305 351 10,600 -1,742 Descending Los Angeles Center
Mon 01:31:07 PM 32.9239 -117.2872 132° Southeast 286 329 8,800 -1,680 Descending Los Angeles Center
Mon 01:32:10 PM 32.8725 -117.2239 134° Southeast 270 311 7,100 -912 Descending Los Angeles Center
Mon 01:33:12 PM 32.8253 -117.1636 133° Southeast 256 295 6,900 -339 Descending Los Angeles Center
Mon 01:34:14 PM 32.7894 -117.0922 121° Southeast 238 274 6,400 -726 Descending Los Angeles Center
Mon 01:35:16 PM 32.7608 -117.0169 114° Southeast 249 287 5,400 -726 Descending Los Angeles Center
Mon 01:36:18 PM 32.7344 -116.9242 109° East 245 282 4,900 -677 Descending Los Angeles Center
Mon 01:37:20 PM 32.6853 -116.9147 171° South 237 273 4,000 -726 Descending Los Angeles Center
Mon 01:38:22 PM 32.6839 -116.9889 269° West 231 266 3,400 -768 Descending Los Angeles Center
Mon 01:39:25 PM 32.6994 -117.0517 286° West 205 236 2,400 -960 Descending Los Angeles Center
Mon 01:40:27 PM 32.7125 -117.1047 286° West 174 200 1,400 -919 Descending Los Angeles Center
Mon 01:41:29 PM 32.7242 -117.1550 285° West 160 184 500 6,581 Descending Los Angeles Center
Mon 01:42:31 PM 32.7344 -117.2031 284° West 136 157 15,000 14,032 Climbing Los Angeles Center

Login

Don't have an account? Register now (free) for customized features, flight alerts, and more!